Time;durP1;ratioP1;P1;durP2;ratioP2;P2;SDS_P1;SDS_P2;PMS_P1;PMS_P2;Temp;Humidity;BMP_temperature;BMP_pressure;BME280_temperature;BME280_humidity;BME280_pressure;Samples;Min_cycle;Max_cycle;Signal;HPM_P1;HPM_P2
2021/10/27 00:02:23;;;;;;;;;;;;;;;;;;5050370;28;19925;-84
2021/10/27 00:04:49;;;;;;;;;;;;;;;;;;5047670;28;19917;-84
2021/10/27 00:07:15;;;;;;;;;;;;;;;;;;5043014;28;19919;-84
2021/10/27 00:09:41;;;;;;;;;;;;;;;;;;5012445;28;20007;-84
2021/10/27 00:12:07;;;;;;;;;;;;;;;;;;5020617;28;20003;-84
2021/10/27 00:14:32;;;;;;;;;;;;;;;;;;5027191;28;19923;-84
2021/10/27 00:16:58;;;;;;;;;;;;;;;;;;5046889;28;19924;-84
2021/10/27 00:19:23;;;;;;;;;;;;;;;;;;5021018;28;19939;-83
2021/10/27 00:21:49;;;;;;;;;;;;;;;;;;5053746;28;20012;-84
2021/10/27 00:24:14;;;;;;;;;;;;;;;;;;5027879;28;19939;-83
2021/10/27 00:26:40;;;;;;;;;;;;;;;;;;5030259;28;20386;-84
2021/10/27 00:29:05;;;;;;;;;;;;;;;;;;5028782;28;19928;-85
2021/10/27 00:31:30;;;;;;;;;;;;;;;;;;5010842;28;19917;-84
2021/10/27 00:33:56;;;;;;;;;;;;;;;;;;5028707;28;19924;-84
2021/10/27 00:36:21;;;;;;;;;;;;;;;;;;5009601;28;19920;-83
2021/10/27 00:38:46;;;;;;;;;;;;;;;;;;5044513;28;19912;-83
2021/10/27 00:41:12;;;;;;;;;;;;;;;;;;5027498;28;19916;-85
2021/10/27 00:43:37;;;;;;;;;;;;;;;;;;5041263;28;20023;-84
2021/10/27 00:46:02;;;;;;;;;;;;;;;;;;5038139;28;19912;-83
2021/10/27 00:48:28;;;;;;;;;;;;;;;;;;5034603;28;19960;-84
2021/10/27 00:50:53;;;;;;;;;;;;;;;;;;5017885;28;19979;-83
2021/10/27 00:53:18;;;;;;;;;;;;;;;;;;5029630;28;20351;-84
2021/10/27 00:55:44;;;;;;;;;;;;;;;;;;5018455;28;19912;-84
2021/10/27 00:58:09;;;;;;;;;;;;;;;;;;5018887;28;19913;-84
2021/10/27 01:00:35;;;;;;;;;;;;;;;;;;5018804;28;19943;-84
2021/10/27 01:03:01;;;;;;;;;;;;;;;;;;5019888;28;19921;-83
2021/10/27 01:05:26;;;;;;;;;;;;;;;;;;5031965;28;19916;-84
2021/10/27 01:07:51;;;;;;;;;;;;;;;;;;5034837;28;19913;-84
2021/10/27 01:10:17;;;;;;;;;;;;;;;;;;5046630;28;19919;-83
2021/10/27 01:12:42;;;;;;;;;;;;;;;;;;5038485;28;19913;-84
2021/10/27 01:15:07;;;;;;;;;;;;;;;;;;5021314;28;19912;-84
2021/10/27 01:17:34;;;;;;;;;;;;;;;;;;5021437;28;19974;-84
2021/10/27 01:19:59;;;;;;;;;;;;;;;;;;5029291;28;19916;-84
2021/10/27 01:22:25;;;;;;;;;;;;;;;;;;5037606;28;20000;-83
2021/10/27 01:24:51;;;;;;;;;;;;;;;;;;5036215;28;19920;-83
2021/10/27 01:27:16;;;;;;;;;;;;;;;;;;5037749;28;19919;-84
2021/10/27 01:29:42;;;;;;;;;;;;;;;;;;5037471;28;20428;-83
2021/10/27 01:32:07;;;;;;;;;;;;;;;;;;5037532;28;19912;-84
2021/10/27 01:34:33;;;;;;;;;;;;;;;;;;5034342;28;19924;-83
2021/10/27 01:36:58;;;;;;;;;;;;;;;;;;5054245;28;19920;-83
2021/10/27 01:39:24;;;;;;;;;;;;;;;;;;5037279;28;20007;-84
2021/10/27 01:41:50;;;;;;;;;;;;;;;;;;5053802;28;20290;-83
2021/10/27 01:44:16;;;;;;;;;;;;;;;;;;5027368;28;19921;-84
2021/10/27 01:46:41;;;;;;;;;;;;;;;;;;5032883;28;19916;-83
2021/10/27 01:49:07;;;;;;;;;;;;;;;;;;5036932;28;19916;-83
2021/10/27 01:51:33;;;;;;;;;;;;;;;;;;5037583;28;20015;-83
2021/10/27 01:53:58;;;;;;;;;;;;;;;;;;5052202;28;19957;-83
2021/10/27 01:56:24;;;;;;;;;;;;;;;;;;5024945;28;19928;-83
2021/10/27 01:58:49;;;;;;;;;;;;;;;;;;5024060;28;19920;-83
2021/10/27 02:01:15;;;;;;;;;;;;;;;;;;5037337;28;19916;-84
2021/10/27 02:03:41;;;;;;;;;;;;;;;;;;5033039;28;19917;-83
2021/10/27 02:06:07;;;;;;;;;;;;;;;;;;5037282;28;19924;-83
2021/10/27 02:08:33;;;;;;;;;;;;;;;;;;5034203;28;19971;-84
2021/10/27 02:10:59;;;;;;;;;;;;;;;;;;5049619;28;19959;-83
2021/10/27 02:13:24;;;;;;;;;;;;;;;;;;5036206;28;19917;-83
2021/10/27 02:15:50;;;;;;;;;;;;;;;;;;5017491;28;19917;-84
2021/10/27 02:18:15;;;;;;;;;;;;;;;;;;5002515;28;20370;-83
2021/10/27 02:20:40;;;;;;;;;;;;;;;;;;5036674;28;19920;-84
2021/10/27 02:23:07;;;;;;;;;;;;;;;;;;5053151;28;19925;-83
2021/10/27 02:25:32;;;;;;;;;;;;;;;;;;5017345;28;19916;-84
2021/10/27 02:27:57;;;;;;;;;;;;;;;;;;5037341;28;19912;-83
2021/10/27 02:30:24;;;;;;;;;;;;;;;;;;5055262;28;19920;-83
2021/10/27 02:32:50;;;;;;;;;;;;;;;;;;5031037;28;19917;-83
2021/10/27 02:35:15;;;;;;;;;;;;;;;;;;5050789;28;19923;-83
2021/10/27 02:37:40;;;;;;;;;;;;;;;;;;5040378;28;19921;-84
2021/10/27 02:40:06;;;;;;;;;;;;;;;;;;5056495;28;19982;-83
2021/10/27 02:42:31;;;;;;;;;;;;;;;;;;5040866;28;20001;-83
2021/10/27 02:44:57;;;;;;;;;;;;;;;;;;5028965;28;20003;-84
2021/10/27 02:47:22;;;;;;;;;;;;;;;;;;5040512;28;19928;-83
2021/10/27 02:49:47;;;;;;;;;;;;;;;;;;5057003;28;19917;-83
2021/10/27 02:52:13;;;;;;;;;;;;;;;;;;5057056;28;19923;-83
2021/10/27 02:54:38;;;;;;;;;;;;;;;;;;5028632;28;19987;-83
2021/10/27 02:57:03;;;;;;;;;;;;;;;;;;5020456;28;19919;-83
2021/10/27 02:59:29;;;;;;;;;;;;;;;;;;5004064;28;19917;-83
2021/10/27 03:01:54;;;;;;;;;;;;;;;;;;5022318;28;20329;-83
2021/10/27 03:04:20;;;;;;;;;;;;;;;;;;5008192;28;19975;-83
2021/10/27 03:06:45;;;;;;;;;;;;;;;;;;5056873;28;19924;-83
2021/10/27 03:09:10;;;;;;;;;;;;;;;;;;5034373;28;19920;-83
2021/10/27 03:11:36;;;;;;;;;;;;;;;;;;5060081;28;19920;-83
2021/10/27 03:14:01;;;;;;;;;;;;;;;;;;5037707;28;19954;-83
2021/10/27 03:16:26;;;;;;;;;;;;;;;;;;5020649;28;19917;-83
2021/10/27 03:18:51;;;;;;;;;;;;;;;;;;5020135;28;20005;-83
2021/10/27 03:21:17;;;;;;;;;;;;;;;;;;5035986;28;19920;-83
2021/10/27 03:23:42;;;;;;;;;;;;;;;;;;5003931;28;19925;-85
2021/10/27 03:26:08;;;;;;;;;;;;;;;;;;5036136;28;19913;-83
2021/10/27 03:28:33;;;;;;;;;;;;;;;;;;5039524;28;20448;-83
2021/10/27 03:30:59;;;;;;;;;;;;;;;;;;5056467;28;20328;-83
2021/10/27 03:33:24;;;;;;;;;;;;;;;;;;5040138;28;19916;-83
2021/10/27 03:35:50;;;;;;;;;;;;;;;;;;5033202;28;19960;-83
2021/10/27 03:38:16;;;;;;;;;;;;;;;;;;5003747;28;19927;-83
2021/10/27 03:40:43;;;;;;;;;;;;;;;;;;5019741;28;19916;-83
2021/10/27 03:43:08;;;;;;;;;;;;;;;;;;5003684;28;20350;-83
2021/10/27 03:45:33;;;;;;;;;;;;;;;;;;5026453;28;19924;-83
2021/10/27 03:47:59;;;;;;;;;;;;;;;;;;5021948;28;20386;-84
2021/10/27 03:50:24;;;;;;;;;;;;;;;;;;5038239;28;19924;-83
2021/10/27 03:52:49;;;;;;;;;;;;;;;;;;5055922;28;19916;-84
2021/10/27 03:55:15;;;;;;;;;;;;;;;;;;5028475;28;20299;-83
2021/10/27 03:57:40;;;;;;;;;;;;;;;;;;5003092;28;19917;-83
2021/10/27 04:00:06;;;;;;;;;;;;;;;;;;5019139;28;19931;-83
2021/10/27 04:02:31;;;;;;;;;;;;;;;;;;5013709;28;19928;-83
2021/10/27 04:04:57;;;;;;;;;;;;;;;;;;5038120;28;19916;-83
2021/10/27 04:07:22;;;;;;;;;;;;;;;;;;5019430;28;20533;-83
2021/10/27 04:09:47;;;;;;;;;;;;;;;;;;5005939;28;19913;-83
2021/10/27 04:12:12;;;;;;;;;;;;;;;;;;5018991;28;19913;-83
2021/10/27 04:14:38;;;;;;;;;;;;;;;;;;5021807;28;19924;-83
2021/10/27 04:17:03;;;;;;;;;;;;;;;;;;5038786;28;19917;-83
2021/10/27 04:19:29;;;;;;;;;;;;;;;;;;5038928;28;19962;-83
2021/10/27 04:21:54;;;;;;;;;;;;;;;;;;5038594;28;19970;-83
2021/10/27 04:24:19;;;;;;;;;;;;;;;;;;5039092;28;19916;-83
2021/10/27 04:26:44;;;;;;;;;;;;;;;;;;5021952;28;19917;-83
2021/10/27 04:29:10;;;;;;;;;;;;;;;;;;5018672;28;20537;-83
2021/10/27 04:31:37;;;;;;;;;;;;;;;;;;5049770;28;19973;-83
2021/10/27 04:34:02;;;;;;;;;;;;;;;;;;5039191;28;20011;-83
2021/10/27 04:36:27;;;;;;;;;;;;;;;;;;5039568;28;19952;-83
2021/10/27 04:38:53;;;;;;;;;;;;;;;;;;5038575;28;19916;-83
2021/10/27 04:41:18;;;;;;;;;;;;;;;;;;5037970;28;19913;-83
2021/10/27 04:43:43;;;;;;;;;;;;;;;;;;5038478;28;20358;-83
2021/10/27 04:46:09;;;;;;;;;;;;;;;;;;5042674;28;19923;-83
2021/10/27 04:48:34;;;;;;;;;;;;;;;;;;5002417;28;20352;-83
2021/10/27 04:51:00;;;;;;;;;;;;;;;;;;5045896;28;19917;-83
2021/10/27 04:53:26;;;;;;;;;;;;;;;;;;5038315;28;19928;-83
2021/10/27 04:55:52;;;;;;;;;;;;;;;;;;5029955;28;19917;-83
2021/10/27 04:58:17;;;;;;;;;;;;;;;;;;5034108;28;19921;-83
2021/10/27 05:00:42;;;;;;;;;;;;;;;;;;5026031;28;19917;-83
2021/10/27 05:03:08;;;;;;;;;;;;;;;;;;5034749;28;19967;-83
2021/10/27 05:05:37;;;;;;;;;;;;;;;;;;5019464;28;19917;-83
2021/10/27 05:08:03;;;;;;;;;;;;;;;;;;5002383;28;19958;-83
2021/10/27 05:10:28;;;;;;;;;;;;;;;;;;5044776;28;19917;-83
2021/10/27 05:12:54;;;;;;;;;;;;;;;;;;5054717;28;19919;-83
2021/10/27 05:15:19;;;;;;;;;;;;;;;;;;5037830;28;20011;-83
2021/10/27 05:17:44;;;;;;;;;;;;;;;;;;5031108;28;19920;-83
2021/10/27 05:20:10;;;;;;;;;;;;;;;;;;5017829;28;19921;-83
2021/10/27 05:22:35;;;;;;;;;;;;;;;;;;5026704;28;19990;-82
2021/10/27 05:25:00;;;;;;;;;;;;;;;;;;5054197;28;19916;-83
2021/10/27 05:27:26;;;;;;;;;;;;;;;;;;5054353;28;20324;-83
2021/10/27 05:29:51;;;;;;;;;;;;;;;;;;5054087;28;19913;-83
2021/10/27 05:32:20;;;;;;;;;;;;;;;;;;5071174;28;19913;-84
2021/10/27 05:34:46;;;;;;;;;;;;;;;;;;5029497;28;19963;-84
2021/10/27 05:37:11;;;;;;;;;;;;;;;;;;5042222;28;20389;-83
2021/10/27 05:39:37;;;;;;;;;;;;;;;;;;5070735;28;20303;-83
2021/10/27 05:42:04;;;;;;;;;;;;;;;;;;5063420;28;20302;-83
2021/10/27 05:44:29;;;;;;;;;;;;;;;;;;5036131;28;19916;-83
2021/10/27 05:46:56;;;;;;;;;;;;;;;;;;5035404;28;20496;-84
2021/10/27 05:49:29;;;;;;;;;;;;;;;;;;5037891;28;19927;-83
2021/10/27 05:55:28;;;;;;;;;;;;;;;;;;5025566;28;19916;-83
2021/10/27 05:57:43;;;;;;;;;;;;;;;;;;5037387;28;20278;-84
2021/10/27 06:00:09;;;;;;;;;;;;;;;;;;5036875;28;20037;-83
2021/10/27 06:02:34;;;;;;;;;;;;;;;;;;5017817;28;19935;-84
2021/10/27 06:05:00;;;;;;;;;;;;;;;;;;5028895;28;20393;-84
2021/10/27 06:07:25;;;;;;;;;;;;;;;;;;5028910;28;19923;-83
2021/10/27 06:09:51;;;;;;;;;;;;;;;;;;5025885;28;19920;-84
2021/10/27 06:12:18;;;;;;;;;;;;;;;;;;5011930;28;19924;-85
2021/10/27 06:14:45;;;;;;;;;;;;;;;;;;5025123;28;20263;-84
2021/10/27 06:17:10;;;;;;;;;;;;;;;;;;5043183;28;19956;-85
2021/10/27 06:19:36;;;;;;;;;;;;;;;;;;5029619;28;19921;-84
2021/10/27 06:22:01;;;;;;;;;;;;;;;;;;5004689;28;19974;-85
2021/10/27 06:24:29;;;;;;;;;;;;;;;;;;5004434;28;20012;-84
2021/10/27 06:26:55;;;;;;;;;;;;;;;;;;5021315;28;19912;-85
2021/10/27 06:29:27;;;;;;;;;;;;;;;;;;5014838;28;19926;-85
2021/10/27 06:32:06;;;;;;;;;;;;;;;;;;5038684;28;19913;-83
2021/10/27 06:47:44;;;;;;;;;;;;;;;;;;5041943;28;20254;-86
2021/10/27 06:50:09;;;;;;;;;;;;;;;;;;5022860;28;19923;-86
2021/10/27 06:52:36;;;;;;;;;;;;;;;;;;5023048;28;20355;-86
2021/10/27 06:55:02;;;;;;;;;;;;;;;;;;5023549;28;20015;-85
2021/10/27 06:57:28;;;;;;;;;;;;;;;;;;5023166;28;19916;-86
2021/10/27 07:00:12;;;;;;;;;;;;;;;;;;5028175;28;20004;-86
2021/10/27 07:16:34;;;;;;;;;;;;;;;;;;5052344;28;19919;-84
2021/10/27 07:19:01;;;;;;;;;;;;;;;;;;5039419;28;20337;-85
2021/10/27 07:21:26;;;;;;;;;;;;;;;;;;5020336;28;19985;-84
2021/10/27 07:23:51;;;;;;;;;;;;;;;;;;5019287;28;19920;-83
2021/10/27 07:26:19;;;;;;;;;;;;;;;;;;5002616;28;19913;-87
2021/10/27 07:28:47;;;;;;;;;;;;;;;;;;5019748;28;19913;-86
2021/10/27 07:31:15;;;;;;;;;;;;;;;;;;5004028;28;19920;-87
2021/10/27 07:33:41;;;;;;;;;;;;;;;;;;5029529;28;20774;-84
2021/10/27 07:36:43;;;;;;;;;;;;;;;;;;5055082;28;19925;-84
2021/10/27 07:41:12;;;;;;;;;;;;;;;;;;5089578;27;19920;-84
2021/10/27 07:43:37;;;;;;;;;;;;;;;;;;5109254;28;19921;-85
2021/10/27 07:46:04;;;;;;;;;;;;;;;;;;5094978;28;19943;-86
2021/10/27 07:48:29;;;;;;;;;;;;;;;;;;5075645;28;19934;-85
2021/10/27 07:50:55;;;;;;;;;;;;;;;;;;5054215;28;20441;-84
2021/10/27 07:53:22;;;;;;;;;;;;;;;;;;5071563;28;19917;-84
2021/10/27 07:55:50;;;;;;;;;;;;;;;;;;5050170;28;19917;-83
2021/10/27 07:58:16;;;;;;;;;;;;;;;;;;5066011;28;19916;-83
2021/10/27 08:00:42;;;;;;;;;;;;;;;;;;5066577;28;19960;-83
2021/10/27 08:03:07;;;;;;;;;;;;;;;;;;5070965;28;19970;-83
2021/10/27 08:05:37;;;;;;;;;;;;;;;;;;5054006;28;19970;-83
2021/10/27 08:08:02;;;;;;;;;;;;;;;;;;5087982;28;19916;-83
2021/10/27 08:10:29;;;;;;;;;;;;;;;;;;5058753;28;20023;-83
2021/10/27 08:12:55;;;;;;;;;;;;;;;;;;5056525;28;19917;-83
2021/10/27 08:15:20;;;;;;;;;;;;;;;;;;5053596;28;19959;-83
2021/10/27 08:17:47;;;;;;;;;;;;;;;;;;5051103;28;20282;-83
2021/10/27 08:20:13;;;;;;;;;;;;;;;;;;5070274;28;20005;-83
2021/10/27 08:22:41;;;;;;;;;;;;;;;;;;5054372;28;20369;-84
2021/10/27 08:25:14;;;;;;;;;;;;;;;;;;5052041;28;19920;-84
2021/10/27 08:27:39;;;;;;;;;;;;;;;;;;5071185;28;19916;-84
2021/10/27 08:30:07;;;;;;;;;;;;;;;;;;5054125;28;19934;-83
2021/10/27 08:32:55;;;;;;;;;;;;;;;;;;5054629;28;20313;-84
2021/10/27 08:35:21;;;;;;;;;;;;;;;;;;5056693;28;19924;-84
2021/10/27 08:37:47;;;;;;;;;;;;;;;;;;5053897;28;19917;-83
2021/10/27 08:40:14;;;;;;;;;;;;;;;;;;5082550;28;19924;-83
2021/10/27 08:42:40;;;;;;;;;;;;;;;;;;5070236;28;20270;-84
2021/10/27 08:45:06;;;;;;;;;;;;;;;;;;5055895;28;19916;-83
2021/10/27 08:47:31;;;;;;;;;;;;;;;;;;5087692;28;19920;-83
2021/10/27 08:49:58;;;;;;;;;;;;;;;;;;5063554;28;19918;-83
2021/10/27 08:52:23;;;;;;;;;;;;;;;;;;5045403;28;19924;-83
2021/10/27 08:54:49;;;;;;;;;;;;;;;;;;5090327;28;19935;-83
2021/10/27 08:57:14;;;;;;;;;;;;;;;;;;5060089;28;20437;-83
2021/10/27 09:00:03;;;;;;;;;;;;;;;;;;5057231;28;19916;-84
2021/10/27 09:02:47;;;;;;;;;;;;;;;;;;5080063;28;19918;-83
2021/10/27 09:41:24;;;;;;;;;;;;;;;;;;5093624;28;20693;-84
2021/10/27 09:44:27;;;;;;;;;;;;;;;;;;5061404;28;19916;-83
2021/10/27 10:06:09;;;;;;;;;;;;;;;;;;5072014;28;19917;-82
2021/10/27 10:08:34;;;;;;;;;;;;;;;;;;5045610;28;19952;-82
2021/10/27 10:11:00;;;;;;;;;;;;;;;;;;5055120;28;20329;-82
2021/10/27 10:13:25;;;;;;;;;;;;;;;;;;5055463;28;19920;-82
2021/10/27 10:15:51;;;;;;;;;;;;;;;;;;5072812;28;19931;-82
2021/10/27 10:18:23;;;;;;;;;;;;;;;;;;5066452;28;19927;-81
2021/10/27 10:20:51;;;;;;;;;;;;;;;;;;5057172;28;20366;-81
2021/10/27 10:23:21;;;;;;;;;;;;;;;;;;5091953;28;20010;-83
2021/10/27 10:25:56;;;;;;;;;;;;;;;;;;5074705;28;19961;-82
2021/10/27 10:28:25;;;;;;;;;;;;;;;;;;5058660;28;20307;-84
2021/10/27 10:30:55;;;;;;;;;;;;;;;;;;5054927;28;19917;-82
2021/10/27 10:33:22;;;;;;;;;;;;;;;;;;5072657;28;19916;-82
2021/10/27 10:36:10;;;;;;;;;;;;;;;;;;5055355;28;19999;-82
2021/10/27 10:55:57;;;;;;;;;;;;;;;;;;5056842;28;19912;-82
2021/10/27 10:58:51;;;;;;;;;;;;;;;;;;5071832;28;19929;-82
2021/10/27 11:01:31;;;;;;;;;;;;;;;;;;5071148;28;20007;-81
2021/10/27 11:40:15;;;;;;;;;;;;;;;;;;5057209;28;19948;-83
2021/10/27 11:42:47;;;;;;;;;;;;;;;;;;5073626;28;19923;-83
2021/10/27 11:48:00;;;;;;;;;;;;;;;;;;5069090;28;19920;-82
2021/10/27 11:50:33;;;;;;;;;;;;;;;;;;5066158;28;19924;-83
2021/10/27 11:53:00;;;;;;;;;;;;;;;;;;5072045;28;19920;-83
2021/10/27 11:55:27;;;;;;;;;;;;;;;;;;5037627;28;19932;-83
2021/10/27 11:57:55;;;;;;;;;;;;;;;;;;5070382;28;19938;-83
2021/10/27 12:00:22;;;;;;;;;;;;;;;;;;5070425;28;19913;-83
2021/10/27 12:03:15;;;;;;;;;;;;;;;;;;5066747;28;19916;-83
2021/10/27 12:05:52;;;;;;;;;;;;;;;;;;5069704;28;20443;-83
2021/10/27 12:19:07;;;;;;;;;;;;;;;;;;5070424;28;19921;-84
2021/10/27 12:21:34;;;;;;;;;;;;;;;;;;5053507;28;19920;-83
2021/10/27 12:24:01;;;;;;;;;;;;;;;;;;5053781;28;19912;-84
2021/10/27 12:26:27;;;;;;;;;;;;;;;;;;5054696;28;19920;-84
2021/10/27 12:29:07;;;;;;;;;;;;;;;;;;5073962;28;19991;-83
2021/10/27 12:31:34;;;;;;;;;;;;;;;;;;5060930;28;20005;-84
2021/10/27 12:33:59;;;;;;;;;;;;;;;;;;5049682;28;19966;-83
2021/10/27 12:36:27;;;;;;;;;;;;;;;;;;5060258;28;19967;-84
2021/10/27 12:39:06;;;;;;;;;;;;;;;;;;5060260;28;19919;-83
2021/10/27 12:41:33;;;;;;;;;;;;;;;;;;5060220;28;19920;-82
2021/10/27 12:43:58;;;;;;;;;;;;;;;;;;5060530;28;20008;-83
2021/10/27 12:46:24;;;;;;;;;;;;;;;;;;5041944;28;20011;-82
2021/10/27 12:48:49;;;;;;;;;;;;;;;;;;5057309;28;20422;-82
2021/10/27 12:51:15;;;;;;;;;;;;;;;;;;5057280;28;19913;-81
2021/10/27 12:53:42;;;;;;;;;;;;;;;;;;5077108;28;19916;-82
2021/10/27 12:56:09;;;;;;;;;;;;;;;;;;5073426;28;20374;-82
2021/10/27 12:58:36;;;;;;;;;;;;;;;;;;5076209;28;19959;-82
2021/10/27 13:01:14;;;;;;;;;;;;;;;;;;5076660;28;19964;-82
2021/10/27 13:04:01;;;;;;;;;;;;;;;;;;5078954;28;19965;-83
2021/10/27 13:09:20;;;;;;;;;;;;;;;;;;5076981;28;20292;-82
2021/10/27 13:22:08;;;;;;;;;;;;;;;;;;5082941;28;19916;-83
2021/10/27 13:30:24;;;;;;;;;;;;;;;;;;5074210;28;20288;-81
2021/10/27 13:33:01;;;;;;;;;;;;;;;;;;5056127;28;19965;-83
2021/10/27 13:35:27;;;;;;;;;;;;;;;;;;5057795;28;19962;-84
2021/10/27 13:37:52;;;;;;;;;;;;;;;;;;5048697;28;20007;-83
2021/10/27 13:40:18;;;;;;;;;;;;;;;;;;5059288;28;20011;-82
2021/10/27 14:07:06;;;;;;;;;;;;;;;;;;5073305;28;19917;-84
2021/10/27 14:09:47;;;;;;;;;;;;;;;;;;5044591;28;19932;-84
2021/10/27 15:19:50;;;;;;;;;;;;;;;;;;5071591;28;19923;-84
2021/10/27 15:25:04;;;;;;;;;;;;;;;;;;5078238;28;19964;-84
2021/10/27 15:30:33;;;;;;;;;;;;;;;;;;5083252;28;19951;-84
2021/10/27 15:51:49;;;;;;;;;;;;;;;;;;5071282;28;20030;-85
2021/10/27 15:54:14;;;;;;;;;;;;;;;;;;5038709;28;19920;-82
2021/10/27 15:56:40;;;;;;;;;;;;;;;;;;5037314;28;19912;-82
2021/10/27 15:59:05;;;;;;;;;;;;;;;;;;5038131;28;20374;-82
2021/10/27 16:01:31;;;;;;;;;;;;;;;;;;5055968;28;19916;-82
2021/10/27 16:03:56;;;;;;;;;;;;;;;;;;5057950;28;20023;-82
2021/10/27 16:06:24;;;;;;;;;;;;;;;;;;5057700;28;19974;-82
2021/10/27 16:08:52;;;;;;;;;;;;;;;;;;5074858;28;19916;-84
2021/10/27 16:11:17;;;;;;;;;;;;;;;;;;5045351;28;20346;-83
2021/10/27 16:13:42;;;;;;;;;;;;;;;;;;5055224;28;19955;-83
2021/10/27 16:16:08;;;;;;;;;;;;;;;;;;5057748;28;19912;-83
2021/10/27 16:18:33;;;;;;;;;;;;;;;;;;5075369;28;19920;-81
2021/10/27 16:21:00;;;;;;;;;;;;;;;;;;5077093;28;19955;-82
2021/10/27 16:23:25;;;;;;;;;;;;;;;;;;5077321;28;19912;-82
2021/10/27 16:25:51;;;;;;;;;;;;;;;;;;5059953;28;19969;-82
2021/10/27 16:28:17;;;;;;;;;;;;;;;;;;5077075;28;20014;-81
2021/10/27 16:30:42;;;;;;;;;;;;;;;;;;5077173;28;20022;-82
2021/10/27 16:33:07;;;;;;;;;;;;;;;;;;5060497;28;20327;-81
2021/10/27 16:35:34;;;;;;;;;;;;;;;;;;5060800;28;20331;-82
2021/10/27 16:38:00;;;;;;;;;;;;;;;;;;5056396;28;20298;-82
2021/10/27 16:40:25;;;;;;;;;;;;;;;;;;5056002;28;19920;-82
2021/10/27 16:42:51;;;;;;;;;;;;;;;;;;5056380;28;20002;-81
2021/10/27 16:45:16;;;;;;;;;;;;;;;;;;5058124;28;19923;-82
2021/10/27 16:47:42;;;;;;;;;;;;;;;;;;5040210;28;20446;-82
2021/10/27 16:50:08;;;;;;;;;;;;;;;;;;5040551;28;19916;-82
2021/10/27 16:52:34;;;;;;;;;;;;;;;;;;5057380;28;20014;-82
2021/10/27 16:54:59;;;;;;;;;;;;;;;;;;5040407;28;20408;-81
2021/10/27 16:57:28;;;;;;;;;;;;;;;;;;5040385;28;19919;-82
2021/10/27 16:59:53;;;;;;;;;;;;;;;;;;5040526;28;19916;-82
2021/10/27 17:02:18;;;;;;;;;;;;;;;;;;5040087;28;19912;-82
2021/10/27 17:04:44;;;;;;;;;;;;;;;;;;5040325;28;19970;-82
2021/10/27 17:07:09;;;;;;;;;;;;;;;;;;5073792;28;20456;-82
2021/10/27 17:09:35;;;;;;;;;;;;;;;;;;5039853;28;19927;-81
2021/10/27 17:12:00;;;;;;;;;;;;;;;;;;5055956;28;20293;-81
2021/10/27 17:14:25;;;;;;;;;;;;;;;;;;5040119;28;19916;-82
2021/10/27 17:16:51;;;;;;;;;;;;;;;;;;5039871;28;19912;-82
2021/10/27 17:19:16;;;;;;;;;;;;;;;;;;5056433;28;20375;-82
2021/10/27 17:21:43;;;;;;;;;;;;;;;;;;5073328;28;19917;-81
2021/10/27 17:24:08;;;;;;;;;;;;;;;;;;5040057;28;19913;-83
2021/10/27 17:26:34;;;;;;;;;;;;;;;;;;5039510;28;20323;-82
2021/10/27 17:29:01;;;;;;;;;;;;;;;;;;5039632;28;19923;-82
2021/10/27 17:31:27;;;;;;;;;;;;;;;;;;5056685;28;19936;-82
2021/10/27 17:33:52;;;;;;;;;;;;;;;;;;5039618;28;19945;-82
2021/10/27 17:36:17;;;;;;;;;;;;;;;;;;5059065;28;19920;-81
2021/10/27 17:38:43;;;;;;;;;;;;;;;;;;5076106;28;19916;-82
2021/10/27 17:41:08;;;;;;;;;;;;;;;;;;5076127;28;20343;-81
2021/10/27 17:43:34;;;;;;;;;;;;;;;;;;5059417;28;19923;-82
2021/10/27 17:46:02;;;;;;;;;;;;;;;;;;5055892;28;20287;-82
2021/10/27 17:49:14;;;;;;;;;;;;;;;;;;5073154;28;19917;-82
2021/10/27 17:59:12;;;;;;;;;;;;;;;;;;5072306;28;19916;-81
2021/10/27 18:01:38;;;;;;;;;;;;;;;;;;5072739;28;19919;-81
2021/10/27 18:04:05;;;;;;;;;;;;;;;;;;5072636;28;19916;-81
2021/10/27 18:06:31;;;;;;;;;;;;;;;;;;5055862;28;19912;-82
2021/10/27 18:08:56;;;;;;;;;;;;;;;;;;5072202;28;19916;-82
2021/10/27 18:11:24;;;;;;;;;;;;;;;;;;5072291;28;20007;-82
2021/10/27 18:13:55;;;;;;;;;;;;;;;;;;5055976;28;19938;-81
2021/10/27 18:19:07;;;;;;;;;;;;;;;;;;5056044;28;19916;-81
2021/10/27 18:21:50;;;;;;;;;;;;;;;;;;5057636;28;19923;-82
2021/10/27 18:40:31;;;;;;;;;;;;;;;;;;5091161;28;19924;-82
2021/10/27 18:43:07;;;;;;;;;;;;;;;;;;5060447;28;19912;-81
2021/10/27 18:45:33;;;;;;;;;;;;;;;;;;5086043;28;19916;-81
2021/10/27 18:47:58;;;;;;;;;;;;;;;;;;5055132;28;20388;-81
2021/10/27 18:50:25;;;;;;;;;;;;;;;;;;5054874;28;19931;-82
2021/10/27 18:53:03;;;;;;;;;;;;;;;;;;5038223;28;19912;-82
2021/10/27 19:00:59;;;;;;;;;;;;;;;;;;5071303;28;19916;-81
2021/10/27 19:11:39;;;;;;;;;;;;;;;;;;5056777;28;20366;-82
2021/10/27 19:14:27;;;;;;;;;;;;;;;;;;5055210;28;20286;-82
2021/10/27 19:16:53;;;;;;;;;;;;;;;;;;5041078;28;19923;-82
2021/10/27 19:19:18;;;;;;;;;;;;;;;;;;5037772;28;19913;-82
2021/10/27 19:21:44;;;;;;;;;;;;;;;;;;5054292;28;19965;-82
2021/10/27 19:24:15;;;;;;;;;;;;;;;;;;5037699;28;19919;-82
2021/10/27 19:26:51;;;;;;;;;;;;;;;;;;5054839;28;19912;-81
2021/10/27 19:29:23;;;;;;;;;;;;;;;;;;5056139;28;19913;-82
2021/10/27 19:32:12;;;;;;;;;;;;;;;;;;5038789;28;19912;-81
2021/10/27 20:55:08;;;;;;;;;;;;;;;;;;5057222;28;19916;-81
2021/10/27 20:57:37;;;;;;;;;;;;;;;;;;5074246;28;19935;-79
2021/10/27 21:00:14;;;;;;;;;;;;;;;;;;5060109;28;19920;-79
2021/10/27 21:02:52;;;;;;;;;;;;;;;;;;5075196;28;20267;-80
2021/10/27 21:13:35;;;;;;;;;;;;;;;;;;5073673;28;20000;-82
2021/10/27 21:16:00;;;;;;;;;;;;;;;;;;5056459;28;20379;-83
2021/10/27 21:18:25;;;;;;;;;;;;;;;;;;5047978;28;19916;-82
2021/10/27 21:20:51;;;;;;;;;;;;;;;;;;5056663;28;19916;-80
2021/10/27 21:23:16;;;;;;;;;;;;;;;;;;5056197;28;20061;-81
2021/10/27 21:25:41;;;;;;;;;;;;;;;;;;5072867;28;20014;-82
2021/10/27 21:28:38;;;;;;;;;;;;;;;;;;5073301;28;19916;-81
2021/10/27 21:44:15;;;;;;;;;;;;;;;;;;5078803;28;20334;-81
2021/10/27 21:46:41;;;;;;;;;;;;;;;;;;5075209;28;20007;-79
2021/10/27 21:49:06;;;;;;;;;;;;;;;;;;5056541;28;20294;-81
2021/10/27 21:51:32;;;;;;;;;;;;;;;;;;5042502;28;20019;-80
2021/10/27 21:53:57;;;;;;;;;;;;;;;;;;5080533;28;20394;-81
2021/10/27 21:56:24;;;;;;;;;;;;;;;;;;5044109;28;20442;-81
2021/10/27 21:58:54;;;;;;;;;;;;;;;;;;5064600;28;19913;-81
2021/10/27 22:01:19;;;;;;;;;;;;;;;;;;5066542;28;19970;-81
2021/10/27 22:03:45;;;;;;;;;;;;;;;;;;5079385;28;20693;-81
2021/10/27 22:06:11;;;;;;;;;;;;;;;;;;5062913;28;20397;-81
2021/10/27 22:08:36;;;;;;;;;;;;;;;;;;5063966;28;19920;-81
2021/10/27 22:11:02;;;;;;;;;;;;;;;;;;5057005;28;19924;-80
2021/10/27 22:13:28;;;;;;;;;;;;;;;;;;5075590;28;20025;-80
2021/10/27 22:15:54;;;;;;;;;;;;;;;;;;5069258;28;20436;-80
2021/10/27 22:18:19;;;;;;;;;;;;;;;;;;5038719;28;19948;-80
2021/10/27 22:20:45;;;;;;;;;;;;;;;;;;5056126;28;20283;-80
2021/10/27 22:23:10;;;;;;;;;;;;;;;;;;5050828;28;19916;-80
2021/10/27 22:25:36;;;;;;;;;;;;;;;;;;5059192;28;20338;-80
2021/10/27 22:28:01;;;;;;;;;;;;;;;;;;5078018;28;20736;-80
2021/10/27 22:30:26;;;;;;;;;;;;;;;;;;5058624;28;20324;-81
2021/10/27 22:32:52;;;;;;;;;;;;;;;;;;5071897;28;20377;-80
2021/10/27 22:35:17;;;;;;;;;;;;;;;;;;5075113;28;19919;-81
2021/10/27 22:37:42;;;;;;;;;;;;;;;;;;5088010;28;20011;-80
2021/10/27 22:40:08;;;;;;;;;;;;;;;;;;5072841;28;19963;-81
2021/10/27 22:42:34;;;;;;;;;;;;;;;;;;5091833;28;19936;-81
2021/10/27 22:44:59;;;;;;;;;;;;;;;;;;5073739;28;20398;-80
2021/10/27 22:47:25;;;;;;;;;;;;;;;;;;5068355;28;20293;-80
2021/10/27 22:49:50;;;;;;;;;;;;;;;;;;5074813;28;20366;-80
2021/10/27 22:52:16;;;;;;;;;;;;;;;;;;5056644;28;19962;-80
2021/10/27 22:54:41;;;;;;;;;;;;;;;;;;5067931;28;20358;-80
2021/10/27 22:57:06;;;;;;;;;;;;;;;;;;5063167;28;19993;-80
2021/10/27 22:59:56;;;;;;;;;;;;;;;;;;5066865;28;20396;-80
2021/10/27 23:02:37;;;;;;;;;;;;;;;;;;5089883;28;19912;-80
2021/10/27 23:07:40;;;;;;;;;;;;;;;;;;5091207;28;19916;-80
2021/10/27 23:10:37;;;;;;;;;;;;;;;;;;5062007;28;20003;-80
2021/10/27 23:40:35;;;;;;;;;;;;;;;;;;5081787;28;19931;-80
2021/10/27 23:43:03;;;;;;;;;;;;;;;;;;5077212;28;20011;-80
2021/10/27 23:45:29;;;;;;;;;;;;;;;;;;5051432;28;19962;-80
2021/10/27 23:47:54;;;;;;;;;;;;;;;;;;5058578;28;19921;-80
2021/10/27 23:57:44;;;;;;;;;;;;;;;;;;5073243;28;19916;-80
